Time;durP1;ratioP1;P1;durP2;ratioP2;P2;SDS_P1;SDS_P2;PMS_P1;PMS_P2;Temp;Humidity;BMP_temperature;BMP_pressure;BME280_temperature;BME280_humidity;BME280_pressure;Samples;Min_cycle;Max_cycle;Signal;HPM_P1;HPM_P2
2024/02/04 11:22:36;;;;;;;13.10;3.10;;;;;;;12.21;82.27;99654.33;102704;1292;601413;-58
2024/02/04 11:25:33;;;;;;;14.20;3.00;;;;;;;12.23;80.30;99652.30;102799;1296;60712;-59
2024/02/04 11:27:59;;;;;;;14.40;2.70;;;;;;;12.30;79.56;99648.05;102554;1291;60711;-58
2024/02/04 11:30:25;;;;;;;17.50;2.40;;;;;;;12.35;79.11;99640.88;102733;1295;72695;-58
2024/02/04 11:32:51;;;;;;;12.10;2.70;;;;;;;12.41;78.49;99646.02;102539;1291;60438;-59
2024/02/04 11:35:17;;;;;;;8.70;2.50;;;;;;;12.46;78.03;99638.00;102342;1291;419456;-59
2024/02/04 11:37:43;;;;;;;10.20;2.70;;;;;;;12.50;77.63;99635.13;102768;1289;60464;-59
2024/02/04 11:40:15;;;;;;;8.40;2.60;;;;;;;12.55;77.24;99633.16;102701;1290;60414;-60
2024/02/04 11:42:41;;;;;;;11.30;2.50;;;;;;;12.59;76.60;99636.42;102859;1294;73503;-59
2024/02/04 11:45:12;;;;;;;9.70;2.40;;;;;;;12.64;76.05;99636.14;102757;1291;60361;-59
2024/02/04 11:47:39;;;;;;;11.80;2.90;;;;;;;12.67;75.60;99641.12;102847;1294;73825;-59
2024/02/04 11:50:06;;;;;;;12.40;3.40;;;;;;;12.70;75.15;99638.08;102591;1296;60431;-59
2024/02/04 11:52:32;;;;;;;13.40;2.60;;;;;;;12.73;74.45;99648.73;102531;1288;60699;-59
2024/02/04 11:54:57;;;;;;;11.30;2.40;;;;;;;12.76;74.08;99650.73;102862;1294;60396;-59
2024/02/04 11:57:23;;;;;;;8.30;1.90;;;;;;;12.78;73.59;99636.09;102768;1291;60418;-59
2024/02/04 11:59:50;;;;;;;8.70;2.10;;;;;;;12.80;72.93;99638.33;102879;1289;60498;-59
2024/02/04 12:02:17;;;;;;;7.50;2.10;;;;;;;12.81;72.50;99633.98;102734;1288;60408;-60
2024/02/04 12:04:47;;;;;;;9.50;1.70;;;;;;;12.82;72.29;99631.27;102807;1292;60413;-59
2024/02/04 12:07:17;;;;;;;7.30;2.10;;;;;;;12.83;72.15;99629.63;102905;1288;73416;-59
2024/02/04 12:09:43;;;;;;;15.90;2.20;;;;;;;12.85;72.00;99629.65;103206;1285;74922;-59
2024/02/04 12:12:08;;;;;;;5.00;1.70;;;;;;;12.86;71.83;99633.96;103206;1285;60723;-60
2024/02/04 12:14:35;;;;;;;6.50;1.80;;;;;;;12.88;71.88;99642.30;103083;1285;60417;-59
2024/02/04 12:17:09;;;;;;;6.20;1.90;;;;;;;12.89;71.77;99644.18;102810;1285;60390;-59
2024/02/04 12:19:36;;;;;;;5.00;1.80;;;;;;;12.90;71.75;99643.45;103341;1289;74216;-60
2024/02/04 12:22:07;;;;;;;4.60;1.70;;;;;;;12.91;71.73;99644.77;103108;1289;74684;-58
2024/02/04 12:24:33;;;;;;;4.20;1.60;;;;;;;12.93;71.73;99644.73;103119;1286;74035;-59
2024/02/04 12:26:59;;;;;;;5.90;2.00;;;;;;;12.95;71.68;99645.64;102996;1290;60856;-59
2024/02/04 12:29:25;;;;;;;5.40;1.90;;;;;;;12.95;71.63;99647.79;103051;1285;60424;-60
2024/02/04 12:31:58;;;;;;;6.80;1.50;;;;;;;12.97;71.67;99649.34;103118;1291;60416;-61
2024/02/04 12:34:24;;;;;;;4.90;1.50;;;;;;;12.98;71.68;99650.40;103074;1285;75739;-61
2024/02/04 12:36:58;;;;;;;7.80;2.00;;;;;;;12.99;71.69;99642.03;103000;1285;60399;-59
2024/02/04 12:39:24;;;;;;;6.90;1.80;;;;;;;13.00;71.78;99643.70;103066;1285;61685;-60
2024/02/04 12:41:53;;;;;;;3.90;1.50;;;;;;;13.01;71.68;99645.30;103102;1285;60425;-60
2024/02/04 12:44:19;;;;;;;7.00;1.80;;;;;;;13.02;71.63;99642.73;102934;1285;74641;-61
2024/02/04 12:46:45;;;;;;;4.10;1.50;;;;;;;13.03;71.67;99646.02;103195;1289;60405;-61
2024/02/04 12:49:17;;;;;;;4.70;1.90;;;;;;;13.04;71.78;99649.64;103003;1291;60999;-60
2024/02/04 12:51:43;;;;;;;7.10;1.50;;;;;;;13.05;71.74;99652.95;102982;1286;61767;-60
2024/02/04 12:54:12;;;;;;;4.70;1.70;;;;;;;13.07;71.74;99654.67;103133;1291;60415;-60
2024/02/04 12:56:56;;;;;;;7.70;1.80;;;;;;;13.07;71.79;99663.68;103325;1291;74373;-60
2024/02/04 12:59:29;;;;;;;8.60;1.80;;;;;;;13.09;71.75;99668.55;103140;1285;74732;-60
2024/02/04 13:01:56;;;;;;;4.00;1.40;;;;;;;13.10;71.96;99671.42;103231;1285;73681;-60
2024/02/04 13:04:22;;;;;;;4.10;1.90;;;;;;;13.12;72.16;99665.73;103288;1285;61760;-61
2024/02/04 13:06:48;;;;;;;4.50;1.30;;;;;;;13.14;72.37;99665.71;103618;1291;60466;-60
2024/02/04 13:09:16;;;;;;;6.50;1.90;;;;;;;13.16;72.18;99663.80;103654;1286;60495;-60
2024/02/04 13:11:42;;;;;;;6.60;1.40;;;;;;;13.17;72.11;99666.46;103775;1285;60638;-60
2024/02/04 13:14:08;;;;;;;4.30;1.30;;;;;;;13.18;72.02;99669.48;103745;1285;60460;-61
2024/02/04 13:16:35;;;;;;;5.40;1.60;;;;;;;13.19;71.99;99667.30;103194;1286;60406;-59
2024/02/04 13:19:05;;;;;;;4.80;1.30;;;;;;;13.20;71.99;99667.71;102965;1290;60406;-61
2024/02/04 13:21:31;;;;;;;7.60;1.70;;;;;;;13.20;71.90;99668.41;103366;1289;74543;-62
2024/02/04 13:23:56;;;;;;;4.20;1.50;;;;;;;13.21;71.97;99669.33;103321;1285;60425;-61
2024/02/04 13:26:22;;;;;;;4.20;1.40;;;;;;;13.21;72.02;99670.58;106778;1285;58130;-61
2024/02/04 13:28:47;;;;;;;6.50;1.40;;;;;;;13.22;72.01;99674.18;106823;1285;58215;-60
2024/02/04 13:31:13;;;;;;;3.40;1.30;;;;;;;13.25;72.16;99673.77;106846;1285;58038;-59
2024/02/04 13:33:39;;;;;;;5.70;1.50;;;;;;;13.28;71.99;99673.71;106837;1285;59104;-60
2024/02/04 13:36:07;;;;;;;6.90;2.00;;;;;;;13.32;71.92;99677.69;106589;1285;73485;-61
2024/02/04 13:38:32;;;;;;;4.50;1.20;;;;;;;13.36;72.32;99676.92;106767;1285;60978;-62
2024/02/04 13:40:57;;;;;;;5.40;1.40;;;;;;;13.39;71.84;99675.66;106779;1285;58157;-62
2024/02/04 13:43:23;;;;;;;5.00;1.70;;;;;;;13.42;71.60;99673.61;106858;1285;58152;-62
2024/02/04 13:45:48;;;;;;;8.40;1.60;;;;;;;13.45;71.38;99678.48;106802;1285;58262;-62
2024/02/04 13:48:14;;;;;;;5.50;1.70;;;;;;;13.46;71.17;99677.73;106846;1285;58102;-62
2024/02/04 13:50:39;;;;;;;2.50;1.10;;;;;;;13.48;70.99;99676.61;106794;1285;58203;-61
2024/02/04 13:53:05;;;;;;;4.00;1.30;;;;;;;13.52;70.79;99682.52;106820;1285;58198;-61
2024/02/04 13:55:30;;;;;;;7.80;1.40;;;;;;;13.53;70.61;99683.08;106814;1287;58105;-62
2024/02/04 13:57:56;;;;;;;7.20;1.80;;;;;;;13.55;70.41;99687.95;106810;1285;58108;-62
2024/02/04 14:00:21;;;;;;;9.00;1.40;;;;;;;13.57;70.32;99689.94;106858;1285;58454;-62
2024/02/04 14:02:47;;;;;;;5.70;1.80;;;;;;;13.59;70.10;99686.64;106808;1285;58167;-62
2024/02/04 14:05:12;;;;;;;3.20;1.30;;;;;;;13.61;69.95;99691.39;106833;1285;58302;-62
2024/02/04 14:07:38;;;;;;;2.60;1.50;;;;;;;13.62;69.78;99695.46;106843;1285;58409;-62
2024/02/04 14:10:04;;;;;;;3.50;1.40;;;;;;;13.63;69.63;99697.48;106813;1285;58105;-62
2024/02/04 14:12:30;;;;;;;2.60;1.50;;;;;;;13.65;69.52;99705.36;106466;1285;58403;-62
2024/02/04 14:14:55;;;;;;;5.50;1.40;;;;;;;13.66;69.34;99707.89;106621;1285;58384;-62
2024/02/04 14:17:21;;;;;;;5.50;1.40;;;;;;;13.67;69.22;99704.83;106814;1285;58225;-62
2024/02/04 14:19:49;;;;;;;3.30;1.50;;;;;;;13.68;69.14;99707.29;106767;1285;58204;-62
2024/02/04 14:22:16;;;;;;;3.10;1.20;;;;;;;13.68;69.01;99709.19;106803;1285;61141;-62
2024/02/04 14:24:41;;;;;;;4.10;1.30;;;;;;;13.70;68.94;99714.35;106820;1285;73177;-62
2024/02/04 14:27:07;;;;;;;5.20;1.30;;;;;;;13.71;68.86;99716.14;106803;1285;58226;-62
2024/02/04 14:29:32;;;;;;;3.20;1.30;;;;;;;13.71;68.64;99716.08;106748;1285;58169;-62
2024/02/04 14:31:58;;;;;;;2.60;1.30;;;;;;;13.72;68.62;99713.56;106746;1285;58285;-62
2024/02/04 14:34:23;;;;;;;4.70;1.20;;;;;;;13.72;68.58;99717.60;106850;1285;58023;-62
2024/02/04 14:36:49;;;;;;;3.20;1.30;;;;;;;13.73;68.52;99719.05;106840;1284;73357;-61
2024/02/04 14:39:15;;;;;;;4.90;1.20;;;;;;;13.74;68.30;99715.69;106662;1285;58171;-62
2024/02/04 14:41:41;;;;;;;3.80;1.60;;;;;;;13.74;68.29;99718.71;106705;1285;58150;-61
2024/02/04 14:44:07;;;;;;;5.50;1.60;;;;;;;13.75;68.16;99726.18;106764;1285;58058;-62
2024/02/04 14:46:36;;;;;;;4.20;1.60;;;;;;;13.74;68.02;99724.94;106825;1285;58150;-62
2024/02/04 14:49:02;;;;;;;5.10;1.50;;;;;;;13.75;67.98;99726.81;106805;1285;74347;-62
2024/02/04 14:51:27;;;;;;;4.10;1.30;;;;;;;13.75;67.95;99730.10;106804;1285;58125;-62
2024/02/04 14:53:53;;;;;;;6.50;1.50;;;;;;;13.76;67.88;99727.55;106808;1285;58577;-62
2024/02/04 14:56:18;;;;;;;3.50;1.30;;;;;;;13.76;67.84;99729.06;106565;1285;58240;-62
2024/02/04 14:58:44;;;;;;;3.70;1.30;;;;;;;13.77;67.69;99727.54;106836;1285;58177;-61
2024/02/04 15:01:09;;;;;;;4.20;1.40;;;;;;;13.76;67.63;99727.75;106779;1285;73546;-62
2024/02/04 15:03:35;;;;;;;3.00;1.50;;;;;;;13.77;67.60;99735.67;106655;1285;59275;-62
2024/02/04 15:06:00;;;;;;;2.80;1.20;;;;;;;13.77;67.59;99744.98;106557;1285;58554;-62
2024/02/04 15:08:26;;;;;;;4.90;1.40;;;;;;;13.78;67.58;99749.02;106792;1285;58233;-61
2024/02/04 15:10:51;;;;;;;3.20;1.30;;;;;;;13.78;67.47;99751.19;106819;1285;58152;-61
2024/02/04 15:13:17;;;;;;;3.10;1.40;;;;;;;13.79;67.52;99764.15;106755;1285;58257;-60
2024/02/04 15:15:43;;;;;;;4.10;1.50;;;;;;;13.79;67.51;99767.12;106822;1285;58071;-61
2024/02/04 15:18:09;;;;;;;3.40;1.10;;;;;;;13.80;67.50;99767.93;106872;1285;58544;-62
2024/02/04 15:20:36;;;;;;;5.10;1.40;;;;;;;13.80;67.57;99771.29;106549;1285;58253;-62
2024/02/04 15:23:02;;;;;;;6.70;1.80;;;;;;;13.81;67.55;99764.51;106794;1285;58803;-61
2024/02/04 15:25:28;;;;;;;4.10;1.20;;;;;;;13.80;67.58;99764.89;106545;1285;58503;-62
2024/02/04 15:27:55;;;;;;;1.80;1.10;;;;;;;13.81;67.61;99770.40;106366;1285;58309;-62
2024/02/04 15:30:20;;;;;;;4.40;1.40;;;;;;;13.81;67.56;99767.15;106816;1285;58302;-62
2024/02/04 15:32:46;;;;;;;3.30;1.50;;;;;;;13.81;67.60;99760.75;106784;1285;58239;-62
2024/02/04 15:35:12;;;;;;;3.30;1.20;;;;;;;13.81;67.64;99761.06;106522;1288;58339;-62
2024/02/04 15:37:38;;;;;;;4.00;1.60;;;;;;;13.82;67.68;99759.80;106805;1285;60203;-61
2024/02/04 15:40:04;;;;;;;3.60;1.40;;;;;;;13.82;67.73;99757.70;106815;1285;58314;-62
2024/02/04 15:42:29;;;;;;;4.70;1.60;;;;;;;13.83;67.68;99759.48;106472;1285;58444;-62
2024/02/04 15:44:54;;;;;;;2.40;1.10;;;;;;;13.83;67.75;99762.88;106797;1284;58245;-62
2024/02/04 15:47:21;;;;;;;2.80;1.20;;;;;;;13.83;67.75;99763.64;106860;1285;58304;-62
2024/02/04 15:49:47;;;;;;;3.20;1.20;;;;;;;13.84;67.90;99762.53;106808;1285;74336;-62
2024/02/04 15:52:13;;;;;;;4.40;1.60;;;;;;;13.84;67.82;99766.42;106503;1285;58280;-60
2024/02/04 15:54:38;;;;;;;3.90;1.20;;;;;;;13.85;67.87;99766.31;106830;1284;58817;-61
2024/02/04 15:57:09;;;;;;;2.70;1.20;;;;;;;13.86;67.85;99762.40;106813;1284;58179;-61
2024/02/04 15:59:40;;;;;;;3.60;1.30;;;;;;;13.87;67.87;99764.00;106845;1285;60456;-63
2024/02/04 16:02:10;;;;;;;3.60;1.60;;;;;;;13.87;67.94;99760.14;106790;1284;74716;-62
2024/02/04 16:04:35;;;;;;;3.50;1.30;;;;;;;13.88;68.11;99764.52;106814;1284;74514;-60
2024/02/04 16:07:01;;;;;;;3.40;1.40;;;;;;;13.90;68.25;99766.00;106827;1284;58237;-59
2024/02/04 16:09:30;;;;;;;2.60;1.40;;;;;;;13.90;68.03;99765.02;106791;1284;58177;-59
2024/02/04 16:12:04;;;;;;;7.60;1.70;;;;;;;13.90;67.96;99764.31;106512;1285;60126;-60
2024/02/04 16:14:43;;;;;;;3.30;1.10;;;;;;;13.90;67.83;99764.00;106819;1284;74457;-59
2024/02/04 16:17:13;;;;;;;2.80;1.30;;;;;;;13.89;67.75;99762.81;106575;1284;74495;-60
2024/02/04 16:19:39;;;;;;;4.30;1.50;;;;;;;13.89;67.72;99763.89;106710;1285;73541;-60
2024/02/04 16:22:05;;;;;;;4.30;1.20;;;;;;;13.90;67.63;99765.84;106794;1285;58636;-60
2024/02/04 16:24:30;;;;;;;3.50;1.70;;;;;;;13.90;67.50;99762.59;106473;1285;58305;-60
2024/02/04 16:26:56;;;;;;;1.90;1.00;;;;;;;13.89;67.53;99764.34;106842;1285;58705;-61
2024/02/04 16:29:27;;;;;;;4.40;1.90;;;;;;;13.89;67.41;99761.46;106465;1287;58945;-60
2024/02/04 16:31:53;;;;;;;3.40;1.50;;;;;;;13.89;67.41;99768.89;106499;1288;71715;-60
2024/02/04 16:34:20;;;;;;;4.50;1.80;;;;;;;13.90;67.27;99770.02;106443;1287;58371;-60
2024/02/04 16:36:47;;;;;;;3.70;1.70;;;;;;;13.90;67.27;99766.92;106339;1288;58289;-60
2024/02/04 16:39:14;;;;;;;4.80;1.70;;;;;;;13.90;67.18;99768.65;106446;1287;74715;-60
2024/02/04 16:41:39;;;;;;;5.60;1.90;;;;;;;13.90;67.25;99763.13;106297;1288;58280;-60
2024/02/04 16:44:05;;;;;;;2.90;1.50;;;;;;;13.89;67.09;99753.34;106435;1288;58367;-60
2024/02/04 16:46:30;;;;;;;5.00;1.80;;;;;;;13.89;66.96;99750.52;106283;1288;58667;-60
2024/02/04 16:48:56;;;;;;;3.20;1.50;;;;;;;13.90;66.86;99749.80;106476;1288;58720;-60
2024/02/04 16:51:21;;;;;;;5.30;1.80;;;;;;;13.90;66.83;99749.69;106359;1288;58279;-60
2024/02/04 16:53:47;;;;;;;10.00;2.30;;;;;;;13.90;66.79;99747.42;106412;1288;72729;-60
2024/02/04 16:56:23;;;;;;;5.20;2.20;;;;;;;13.89;66.73;99748.25;106431;1288;58283;-60
2024/02/04 16:58:49;;;;;;;3.40;1.90;;;;;;;13.89;66.67;99750.48;106522;1287;61063;-60
2024/02/04 17:01:15;;;;;;;3.80;1.70;;;;;;;13.89;66.62;99754.26;106704;1284;59596;-60
2024/02/04 17:03:41;;;;;;;4.00;1.90;;;;;;;13.88;66.67;99756.48;106494;1285;58646;-60
2024/02/04 17:06:08;;;;;;;5.50;1.90;;;;;;;13.89;66.55;99759.99;106445;1285;58220;-60
2024/02/04 17:08:34;;;;;;;4.50;1.90;;;;;;;13.89;66.48;99756.65;106583;1285;58221;-59
2024/02/04 17:11:00;;;;;;;4.80;1.80;;;;;;;13.88;66.51;99756.70;106817;1284;58115;-60
2024/02/04 17:13:25;;;;;;;5.30;2.20;;;;;;;13.88;66.49;99753.73;106612;1285;58533;-59
2024/02/04 17:15:51;;;;;;;6.20;2.40;;;;;;;13.88;66.36;99749.61;106841;1284;58330;-61
2024/02/04 17:18:33;;;;;;;4.60;2.20;;;;;;;13.88;66.38;99749.51;106804;1284;58309;-60
2024/02/04 17:21:03;;;;;;;5.80;1.90;;;;;;;13.88;66.20;99750.42;106784;1284;59017;-61
2024/02/04 17:23:34;;;;;;;4.40;1.60;;;;;;;13.88;66.28;99747.17;106486;1285;60338;-61
2024/02/04 17:26:00;;;;;;;4.10;1.80;;;;;;;13.89;66.18;99746.35;106836;1284;74741;-61
2024/02/04 17:28:26;;;;;;;4.00;1.70;;;;;;;13.88;66.15;99744.91;106832;1284;58267;-60
2024/02/04 17:30:52;;;;;;;6.30;2.00;;;;;;;13.87;66.34;99747.36;106837;1285;58316;-61
2024/02/04 17:33:18;;;;;;;4.70;1.90;;;;;;;13.87;66.31;99744.11;106777;1284;59089;-61
2024/02/04 17:35:48;;;;;;;3.10;1.60;;;;;;;13.87;66.24;99739.30;106789;1284;58228;-61
2024/02/04 17:38:14;;;;;;;3.50;1.80;;;;;;;13.87;66.26;99741.23;106843;1284;74436;-61
2024/02/04 17:40:42;;;;;;;4.60;2.10;;;;;;;13.87;66.17;99740.16;106832;1285;58225;-61
2024/02/04 17:43:10;;;;;;;3.60;1.50;;;;;;;13.86;66.12;99742.02;106804;1285;72586;-60
2024/02/04 17:45:39;;;;;;;5.20;1.90;;;;;;;13.87;66.14;99740.31;106827;1284;61025;-60
2024/02/04 17:48:05;;;;;;;5.70;2.20;;;;;;;13.87;66.05;99739.85;106799;1285;60887;-60
2024/02/04 17:50:31;;;;;;;3.70;1.80;;;;;;;13.87;66.04;99739.02;106846;1284;73487;-61
2024/02/04 17:52:56;;;;;;;4.00;1.70;;;;;;;13.87;66.05;99743.58;106364;1285;58540;-61
2024/02/04 17:55:23;;;;;;;6.00;2.10;;;;;;;13.87;66.11;99744.17;106840;1285;58359;-61
2024/02/04 17:57:49;;;;;;;7.00;1.90;;;;;;;13.87;66.24;99750.77;106724;1285;58509;-61
2024/02/04 18:00:15;;;;;;;4.20;1.80;;;;;;;13.88;66.56;99749.89;106612;1285;58306;-61
2024/02/04 18:02:41;;;;;;;3.20;1.60;;;;;;;13.89;66.60;99751.70;106800;1285;58384;-61
2024/02/04 18:05:06;;;;;;;4.80;1.70;;;;;;;13.90;66.51;99745.80;106866;1285;59054;-61
2024/02/04 18:07:32;;;;;;;4.60;2.00;;;;;;;13.90;66.77;99749.20;106777;1285;61232;-61
2024/02/04 18:09:57;;;;;;;4.10;1.40;;;;;;;13.91;67.30;99746.52;106822;1284;58333;-61
2024/02/04 18:12:23;;;;;;;4.70;2.00;;;;;;;13.93;67.63;99743.22;106836;1285;58438;-61
2024/02/04 18:14:49;;;;;;;6.10;1.50;;;;;;;13.94;67.58;99743.33;106735;1285;58553;-61
2024/02/04 18:17:15;;;;;;;5.20;1.80;;;;;;;13.94;67.54;99744.08;106841;1285;58288;-61
2024/02/04 18:19:41;;;;;;;5.20;2.10;;;;;;;13.95;67.54;99741.40;106854;1285;58702;-61
2024/02/04 18:22:07;;;;;;;5.40;1.80;;;;;;;13.95;67.52;99742.10;106781;1285;74202;-61
2024/02/04 18:24:36;;;;;;;4.80;1.90;;;;;;;13.96;67.67;99741.05;106799;1285;58162;-60
2024/02/04 18:27:03;;;;;;;6.30;1.90;;;;;;;13.96;67.89;99740.13;106813;1285;72380;-61
2024/02/04 18:29:29;;;;;;;7.10;2.10;;;;;;;13.96;67.69;99737.58;106755;1284;59975;-61
2024/02/04 18:31:54;;;;;;;3.90;2.10;;;;;;;13.96;67.88;99734.39;106778;1285;58222;-61
2024/02/04 18:34:19;;;;;;;4.50;2.00;;;;;;;13.96;67.93;99734.39;106795;1285;58226;-61
2024/02/04 18:36:45;;;;;;;7.40;1.90;;;;;;;13.96;68.23;99729.67;106805;1284;58190;-60
2024/02/04 18:39:11;;;;;;;3.40;1.80;;;;;;;13.97;69.25;99726.79;106495;1290;58376;-60
2024/02/04 18:41:39;;;;;;;6.70;2.50;;;;;;;13.99;70.54;99720.84;106781;1286;59982;-61
2024/02/04 18:44:05;;;;;;;10.60;2.60;;;;;;;14.02;72.37;99718.13;106834;1285;74699;-59
2024/02/04 18:46:31;;;;;;;15.20;3.20;;;;;;;14.05;74.01;99717.30;106809;1285;58214;-61
2024/02/04 18:48:58;;;;;;;23.20;4.10;;;;;;;14.07;74.34;99717.59;106724;1285;58185;-61
2024/02/04 18:51:25;;;;;;;24.90;4.10;;;;;;;14.07;74.29;99720.98;106816;1284;58159;-62
2024/02/04 18:53:51;;;;;;;11.30;3.40;;;;;;;14.07;74.40;99719.05;106835;1285;58233;-60
2024/02/04 18:56:16;;;;;;;10.50;3.10;;;;;;;14.06;74.31;99715.92;106471;1285;58213;-61
2024/02/04 18:58:44;;;;;;;7.70;3.10;;;;;;;14.06;74.42;99718.64;106812;1285;58322;-62
2024/02/04 19:01:09;;;;;;;11.40;2.80;;;;;;;14.06;74.30;99716.04;106744;1285;58716;-62
2024/02/04 19:03:35;;;;;;;17.90;2.90;;;;;;;14.06;75.09;99720.96;106764;1285;58700;-59
2024/02/04 19:06:02;;;;;;;12.20;3.50;;;;;;;14.07;76.26;99713.48;106831;1285;58618;-60
2024/02/04 19:08:29;;;;;;;7.40;2.90;;;;;;;14.07;75.91;99712.39;106798;1284;58256;-60
2024/02/04 19:10:57;;;;;;;9.90;3.10;;;;;;;14.06;76.33;99713.70;106829;1285;58453;-60
2024/02/04 19:13:22;;;;;;;7.00;2.90;;;;;;;14.06;76.51;99712.19;106794;1285;58247;-60
2024/02/04 19:15:47;;;;;;;8.40;3.00;;;;;;;14.06;76.44;99708.07;106757;1285;58141;-60
2024/02/04 19:18:13;;;;;;;12.50;3.60;;;;;;;14.05;76.25;99707.74;106732;1285;58706;-60
2024/02/04 19:20:39;;;;;;;11.10;3.10;;;;;;;14.05;76.14;99706.17;106867;1285;58217;-60
2024/02/04 19:23:05;;;;;;;8.10;3.10;;;;;;;14.04;76.01;99705.66;106786;1285;72583;-60
2024/02/04 19:25:31;;;;;;;8.00;3.20;;;;;;;14.03;75.67;99704.94;106497;1285;58320;-60
2024/02/04 19:27:57;;;;;;;10.50;3.40;;;;;;;14.03;75.58;99705.36;106850;1285;58211;-60
2024/02/04 19:30:24;;;;;;;6.30;3.00;;;;;;;14.03;75.48;99705.59;106823;1285;58468;-61
2024/02/04 19:32:51;;;;;;;8.70;3.40;;;;;;;14.01;75.52;99702.42;106799;1285;58685;-60
2024/02/04 19:35:19;;;;;;;10.90;2.60;;;;;;;14.01;75.45;99704.65;106792;1285;58662;-60
2024/02/04 19:37:45;;;;;;;8.20;3.00;;;;;;;14.00;75.51;99703.21;106758;1285;60182;-60
2024/02/04 19:40:11;;;;;;;9.00;2.80;;;;;;;13.99;75.60;99698.88;106830;1284;58245;-60
2024/02/04 19:42:37;;;;;;;6.60;2.80;;;;;;;13.99;75.66;99695.54;106815;1284;58231;-60
2024/02/04 19:45:05;;;;;;;7.70;3.00;;;;;;;13.98;75.42;99694.48;106821;1284;58466;-61
2024/02/04 19:47:31;;;;;;;9.30;3.10;;;;;;;13.97;75.52;99696.39;106751;1285;73399;-60
2024/02/04 19:49:57;;;;;;;5.70;2.90;;;;;;;13.97;75.59;99694.50;106763;1285;58412;-58
2024/02/04 19:52:22;;;;;;;8.80;3.30;;;;;;;13.96;75.50;99693.15;106735;1285;58470;-60
2024/02/04 19:54:48;;;;;;;8.40;3.30;;;;;;;13.96;75.49;99693.13;106859;1285;58219;-59
2024/02/04 19:57:13;;;;;;;9.50;3.60;;;;;;;13.95;75.48;99688.11;106773;1285;58323;-59
2024/02/04 19:59:39;;;;;;;6.40;3.20;;;;;;;13.94;75.46;99688.87;106821;1285;58254;-60
2024/02/04 20:02:06;;;;;;;7.60;3.00;;;;;;;13.94;75.43;99685.67;106763;1285;60155;-60
2024/02/04 20:04:35;;;;;;;7.00;3.10;;;;;;;13.94;75.41;99681.63;106811;1285;74688;-60
2024/02/04 20:07:04;;;;;;;7.10;3.00;;;;;;;13.94;75.37;99682.16;106792;1285;74343;-59
2024/02/04 20:09:30;;;;;;;7.30;2.90;;;;;;;13.93;75.30;99678.60;106787;1285;73352;-61
2024/02/04 20:11:56;;;;;;;8.30;3.40;;;;;;;13.93;75.26;99677.58;106751;1285;58179;-60
2024/02/04 20:14:22;;;;;;;12.60;3.40;;;;;;;13.92;75.30;99675.66;106813;1285;58114;-61
2024/02/04 20:16:48;;;;;;;7.40;2.80;;;;;;;13.92;75.10;99675.87;106829;1285;58423;-59
2024/02/04 20:19:16;;;;;;;6.80;3.10;;;;;;;13.91;75.23;99673.73;106761;1285;58353;-60
2024/02/04 20:21:42;;;;;;;7.30;2.60;;;;;;;13.91;75.14;99673.40;106806;1286;58379;-61
2024/02/04 20:24:08;;;;;;;13.10;3.30;;;;;;;13.90;75.18;99670.45;106678;1285;58266;-60
2024/02/04 20:26:34;;;;;;;7.30;3.10;;;;;;;13.89;75.08;99665.80;106536;1286;58805;-61
2024/02/04 20:28:59;;;;;;;9.20;3.30;;;;;;;13.89;74.90;99668.34;106647;1285;58209;-61
2024/02/04 20:31:25;;;;;;;11.00;3.60;;;;;;;13.88;75.07;99666.84;106778;1286;58308;-61
2024/02/04 20:33:50;;;;;;;5.80;2.80;;;;;;;13.87;74.88;99661.94;106794;1285;58308;-61
2024/02/04 20:36:16;;;;;;;6.90;3.10;;;;;;;13.86;74.87;99666.78;106824;1285;58277;-61
2024/02/04 20:38:42;;;;;;;7.50;3.20;;;;;;;13.86;74.76;99660.51;106752;1285;58306;-61
2024/02/04 20:41:08;;;;;;;8.60;3.70;;;;;;;13.85;74.75;99661.33;106773;1285;58464;-60
2024/02/04 20:43:34;;;;;;;8.00;3.00;;;;;;;13.85;74.65;99658.14;106744;1286;58244;-60
2024/02/04 20:46:01;;;;;;;13.10;3.10;;;;;;;13.85;74.51;99654.72;106646;1285;58367;-60
2024/02/04 20:48:26;;;;;;;6.60;3.10;;;;;;;13.84;74.53;99654.29;106482;1285;58284;-59
2024/02/04 20:50:52;;;;;;;7.40;3.20;;;;;;;13.84;74.42;99648.72;106882;1285;58280;-60
2024/02/04 20:53:17;;;;;;;7.90;3.40;;;;;;;13.84;74.48;99648.14;106788;1285;72755;-60
2024/02/04 20:55:43;;;;;;;8.50;3.50;;;;;;;13.84;74.18;99645.81;106781;1285;58201;-60
2024/02/04 20:58:08;;;;;;;8.80;3.40;;;;;;;13.83;74.33;99646.59;106516;1287;58330;-60
2024/02/04 21:00:34;;;;;;;8.40;3.60;;;;;;;13.83;74.25;99646.05;106829;1285;58393;-61
2024/02/04 21:02:59;;;;;;;9.20;3.50;;;;;;;13.83;74.17;99640.20;106836;1285;58229;-61
2024/02/04 21:05:27;;;;;;;8.60;3.50;;;;;;;13.82;74.06;99644.83;106803;1285;58750;-59
2024/02/04 21:07:52;;;;;;;11.10;3.80;;;;;;;13.82;74.20;99641.31;106690;1285;61006;-61
2024/02/04 21:10:18;;;;;;;8.10;3.20;;;;;;;13.80;74.21;99635.05;106738;1291;58722;-61
2024/02/04 21:12:44;;;;;;;8.00;3.50;;;;;;;13.81;74.53;99634.45;106772;1285;58206;-61
2024/02/04 21:15:10;;;;;;;7.60;3.10;;;;;;;13.81;74.76;99635.54;106701;1291;58272;-61
2024/02/04 21:17:36;;;;;;;8.90;3.70;;;;;;;13.81;74.95;99637.86;106803;1285;58531;-61
2024/02/04 21:20:04;;;;;;;8.30;3.60;;;;;;;13.81;75.10;99633.98;106801;1286;59043;-61
2024/02/04 21:22:30;;;;;;;8.10;3.50;;;;;;;13.80;75.30;99634.23;106785;1285;58262;-61
2024/02/04 21:24:55;;;;;;;5.80;3.00;;;;;;;13.80;75.57;99632.95;106626;1286;58770;-60
2024/02/04 21:27:21;;;;;;;6.90;3.10;;;;;;;13.80;75.61;99630.79;106764;1285;58239;-62
2024/02/04 21:29:47;;;;;;;7.80;3.20;;;;;;;13.80;75.88;99629.39;106820;1286;58437;-62
2024/02/04 21:32:12;;;;;;;8.10;3.60;;;;;;;13.80;76.07;99624.89;106755;1286;73032;-62
2024/02/04 21:34:38;;;;;;;6.60;3.30;;;;;;;13.80;76.13;99624.58;106794;1285;58708;-62
2024/02/04 21:37:04;;;;;;;8.10;3.70;;;;;;;13.80;76.21;99625.91;106563;1285;58357;-61
2024/02/04 21:39:30;;;;;;;6.90;3.20;;;;;;;13.80;76.37;99627.38;106764;1285;58552;-62
2024/02/04 21:41:56;;;;;;;10.30;3.70;;;;;;;13.81;76.49;99622.77;106810;1285;58472;-62
2024/02/04 21:44:22;;;;;;;6.70;3.20;;;;;;;13.80;76.56;99621.86;106839;1286;58231;-61
2024/02/04 21:46:48;;;;;;;8.60;3.70;;;;;;;13.80;76.81;99621.04;106763;1285;73540;-60
2024/02/04 21:49:14;;;;;;;10.70;3.90;;;;;;;13.80;77.03;99624.79;106496;1286;58731;-62
2024/02/04 21:51:39;;;;;;;10.70;3.80;;;;;;;13.79;77.03;99617.73;106745;1285;58318;-62
2024/02/04 21:54:05;;;;;;;8.50;3.90;;;;;;;13.79;77.04;99614.33;106776;1285;58501;-62
2024/02/04 21:56:31;;;;;;;6.80;3.10;;;;;;;13.79;77.18;99612.29;106649;1285;58350;-61
2024/02/04 21:58:56;;;;;;;7.60;3.30;;;;;;;13.79;77.18;99612.45;106818;1285;58244;-61
2024/02/04 22:01:22;;;;;;;8.40;3.70;;;;;;;13.78;77.39;99611.48;106745;1285;59898;-61
2024/02/04 22:03:48;;;;;;;9.30;4.00;;;;;;;13.78;77.49;99604.45;106483;1285;58329;-61
2024/02/04 22:06:14;;;;;;;9.60;3.70;;;;;;;13.79;77.38;99602.44;106761;1285;58245;-61
2024/02/04 22:08:42;;;;;;;6.50;3.20;;;;;;;13.78;77.40;99600.17;106710;1285;58263;-62
2024/02/04 22:11:07;;;;;;;8.70;4.00;;;;;;;13.78;77.55;99597.95;106527;1286;58263;-62
2024/02/04 22:13:33;;;;;;;9.90;3.50;;;;;;;13.78;77.56;99595.37;106818;1285;58351;-62
2024/02/04 22:15:58;;;;;;;7.10;3.40;;;;;;;13.78;77.60;99595.36;106534;1285;58861;-61
2024/02/04 22:18:24;;;;;;;8.80;3.50;;;;;;;13.77;77.56;99590.55;106805;1285;58385;-62
2024/02/04 22:20:49;;;;;;;7.50;3.20;;;;;;;13.78;77.52;99591.58;106683;1286;60415;-60
2024/02/04 22:23:15;;;;;;;6.90;3.70;;;;;;;13.78;77.61;99590.02;106791;1285;58207;-60
2024/02/04 22:25:41;;;;;;;9.60;3.50;;;;;;;13.77;77.52;99592.02;106477;1285;59831;-60
2024/02/04 22:28:06;;;;;;;10.20;3.80;;;;;;;13.77;77.57;99587.10;106793;1285;58246;-60
2024/02/04 22:30:32;;;;;;;10.00;3.70;;;;;;;13.76;77.57;99586.23;106777;1285;58208;-60
2024/02/04 22:32:58;;;;;;;9.00;4.30;;;;;;;13.77;77.71;99582.40;106664;1285;58352;-60
2024/02/04 22:35:24;;;;;;;10.10;3.40;;;;;;;13.76;77.60;99584.30;106829;1285;58234;-60
2024/02/04 22:37:50;;;;;;;9.20;3.40;;;;;;;13.77;77.68;99581.63;106778;1285;74474;-60
2024/02/04 22:40:16;;;;;;;11.30;3.50;;;;;;;13.77;77.67;99582.61;106721;1285;58648;-60
2024/02/04 22:42:42;;;;;;;6.40;3.40;;;;;;;13.76;77.71;99582.09;106752;1285;58202;-60